sensor_id;sensor_type;location;lat;lon;timestamp;P1;durP1;ratioP1;P2;durP2;ratioP2
4794;SDS011;2411;47.060;15.064;2023-02-02T00:01:46;0.50;;;0.50;;
4794;SDS011;2411;47.060;15.064;2023-02-02T00:04:20;0.40;;;0.40;;
4794;SDS011;2411;47.060;15.064;2023-02-02T00:06:51;0.90;;;0.40;;
4794;SDS011;2411;47.060;15.064;2023-02-02T00:09:19;0.40;;;0.40;;
4794;SDS011;2411;47.060;15.064;2023-02-02T00:11:47;0.40;;;0.40;;
4794;SDS011;2411;47.060;15.064;2023-02-02T00:14:17;0.40;;;0.40;;
4794;SDS011;2411;47.060;15.064;2023-02-02T00:16:45;0.40;;;0.40;;
4794;SDS011;2411;47.060;15.064;2023-02-02T00:21:44;0.40;;;0.40;;
4794;SDS011;2411;47.060;15.064;2023-02-02T00:24:12;0.70;;;0.40;;
4794;SDS011;2411;47.060;15.064;2023-02-02T00:26:41;0.83;;;0.40;;
4794;SDS011;2411;47.060;15.064;2023-02-02T00:29:16;0.40;;;0.40;;
4794;SDS011;2411;47.060;15.064;2023-02-02T00:31:52;0.70;;;0.40;;
4794;SDS011;2411;47.060;15.064;2023-02-02T00:34:20;0.40;;;0.40;;
4794;SDS011;2411;47.060;15.064;2023-02-02T00:36:48;0.50;;;0.50;;
4794;SDS011;2411;47.060;15.064;2023-02-02T00:39:18;0.40;;;0.40;;
4794;SDS011;2411;47.060;15.064;2023-02-02T00:41:47;0.50;;;0.50;;
4794;SDS011;2411;47.060;15.064;2023-02-02T00:44:15;1.63;;;0.50;;
4794;SDS011;2411;47.060;15.064;2023-02-02T00:47:01;0.83;;;0.40;;
4794;SDS011;2411;47.060;15.064;2023-02-02T00:49:28;0.40;;;0.40;;
4794;SDS011;2411;47.060;15.064;2023-02-02T00:51:56;0.50;;;0.50;;
4794;SDS011;2411;47.060;15.064;2023-02-02T00:54:23;0.40;;;0.40;;
4794;SDS011;2411;47.060;15.064;2023-02-02T00:56:51;0.30;;;0.30;;
4794;SDS011;2411;47.060;15.064;2023-02-02T00:59:18;0.40;;;0.40;;
4794;SDS011;2411;47.060;15.064;2023-02-02T01:01:45;0.30;;;0.30;;
4794;SDS011;2411;47.060;15.064;2023-02-02T01:04:13;0.30;;;0.30;;
4794;SDS011;2411;47.060;15.064;2023-02-02T01:06:40;0.70;;;0.40;;
4794;SDS011;2411;47.060;15.064;2023-02-02T01:09:08;0.60;;;0.50;;
4794;SDS011;2411;47.060;15.064;2023-02-02T01:11:35;0.30;;;0.30;;
4794;SDS011;2411;47.060;15.064;2023-02-02T01:14:03;0.40;;;0.40;;
4794;SDS011;2411;47.060;15.064;2023-02-02T01:16:31;0.30;;;0.30;;
4794;SDS011;2411;47.060;15.064;2023-02-02T01:18:58;0.40;;;0.40;;
4794;SDS011;2411;47.060;15.064;2023-02-02T01:21:26;1.53;;;0.40;;
4794;SDS011;2411;47.060;15.064;2023-02-02T01:23:53;0.40;;;0.40;;
4794;SDS011;2411;47.060;15.064;2023-02-02T01:26:20;0.50;;;0.50;;
4794;SDS011;2411;47.060;15.064;2023-02-02T01:28:48;1.53;;;0.60;;
4794;SDS011;2411;47.060;15.064;2023-02-02T01:31:16;0.30;;;0.30;;
4794;SDS011;2411;47.060;15.064;2023-02-02T01:33:45;0.40;;;0.40;;
4794;SDS011;2411;47.060;15.064;2023-02-02T01:36:15;0.40;;;0.40;;
4794;SDS011;2411;47.060;15.064;2023-02-02T01:38:45;0.30;;;0.30;;
4794;SDS011;2411;47.060;15.064;2023-02-02T01:41:15;0.30;;;0.30;;
4794;SDS011;2411;47.060;15.064;2023-02-02T01:46:12;0.37;;;0.37;;
4794;SDS011;2411;47.060;15.064;2023-02-02T01:48:49;0.37;;;0.37;;
4794;SDS011;2411;47.060;15.064;2023-02-02T01:51:18;1.17;;;0.40;;
4794;SDS011;2411;47.060;15.064;2023-02-02T01:53:49;0.40;;;0.40;;
4794;SDS011;2411;47.060;15.064;2023-02-02T01:56:24;0.97;;;0.50;;
4794;SDS011;2411;47.060;15.064;2023-02-02T01:58:55;2.83;;;0.40;;
4794;SDS011;2411;47.060;15.064;2023-02-02T02:01:24;0.30;;;0.30;;
4794;SDS011;2411;47.060;15.064;2023-02-02T02:03:52;0.40;;;0.40;;
4794;SDS011;2411;47.060;15.064;2023-02-02T02:06:20;0.40;;;0.40;;
4794;SDS011;2411;47.060;15.064;2023-02-02T02:08:58;0.70;;;0.40;;
4794;SDS011;2411;47.060;15.064;2023-02-02T02:11:29;0.40;;;0.40;;
4794;SDS011;2411;47.060;15.064;2023-02-02T02:13:59;1.00;;;0.40;;
4794;SDS011;2411;47.060;15.064;2023-02-02T02:40:04;0.30;;;0.30;;
4794;SDS011;2411;47.060;15.064;2023-02-02T02:42:51;0.80;;;0.40;;
4794;SDS011;2411;47.060;15.064;2023-02-02T02:45:30;0.40;;;0.40;;
4794;SDS011;2411;47.060;15.064;2023-02-02T02:47:58;0.40;;;0.40;;
4794;SDS011;2411;47.060;15.064;2023-02-02T02:50:28;0.63;;;0.40;;
4794;SDS011;2411;47.060;15.064;2023-02-02T02:52:58;0.40;;;0.40;;
4794;SDS011;2411;47.060;15.064;2023-02-02T02:55:31;0.80;;;0.40;;
4794;SDS011;2411;47.060;15.064;2023-02-02T02:58:18;0.40;;;0.40;;
4794;SDS011;2411;47.060;15.064;2023-02-02T03:01:13;0.33;;;0.33;;
4794;SDS011;2411;47.060;15.064;2023-02-02T03:04:09;0.40;;;0.40;;
4794;SDS011;2411;47.060;15.064;2023-02-02T03:06:59;0.30;;;0.30;;
4794;SDS011;2411;47.060;15.064;2023-02-02T03:09:32;0.30;;;0.30;;
4794;SDS011;2411;47.060;15.064;2023-02-02T03:12:04;0.40;;;0.40;;
4794;SDS011;2411;47.060;15.064;2023-02-02T03:14:35;0.33;;;0.33;;
4794;SDS011;2411;47.060;15.064;2023-02-02T03:17:03;0.40;;;0.40;;
4794;SDS011;2411;47.060;15.064;2023-02-02T03:19:30;0.30;;;0.30;;
4794;SDS011;2411;47.060;15.064;2023-02-02T03:21:58;0.30;;;0.30;;
4794;SDS011;2411;47.060;15.064;2023-02-02T03:24:25;0.30;;;0.30;;
4794;SDS011;2411;47.060;15.064;2023-02-02T03:26:53;0.30;;;0.30;;
4794;SDS011;2411;47.060;15.064;2023-02-02T03:29:20;0.30;;;0.30;;
4794;SDS011;2411;47.060;15.064;2023-02-02T03:31:48;0.50;;;0.37;;
4794;SDS011;2411;47.060;15.064;2023-02-02T03:34:15;1.17;;;0.30;;
4794;SDS011;2411;47.060;15.064;2023-02-02T03:36:43;0.30;;;0.30;;
4794;SDS011;2411;47.060;15.064;2023-02-02T03:39:10;0.40;;;0.40;;
4794;SDS011;2411;47.060;15.064;2023-02-02T03:41:37;0.40;;;0.40;;
4794;SDS011;2411;47.060;15.064;2023-02-02T03:44:05;0.30;;;0.30;;
4794;SDS011;2411;47.060;15.064;2023-02-02T03:46:32;0.30;;;0.30;;
4794;SDS011;2411;47.060;15.064;2023-02-02T03:49:00;0.30;;;0.30;;
4794;SDS011;2411;47.060;15.064;2023-02-02T03:51:28;0.33;;;0.33;;
4794;SDS011;2411;47.060;15.064;2023-02-02T03:53:55;0.40;;;0.40;;
4794;SDS011;2411;47.060;15.064;2023-02-02T03:56:22;0.30;;;0.30;;
4794;SDS011;2411;47.060;15.064;2023-02-02T03:58:50;0.30;;;0.30;;
4794;SDS011;2411;47.060;15.064;2023-02-02T04:01:24;0.40;;;0.40;;
4794;SDS011;2411;47.060;15.064;2023-02-02T04:03:56;0.30;;;0.30;;
4794;SDS011;2411;47.060;15.064;2023-02-02T04:06:24;0.30;;;0.30;;
4794;SDS011;2411;47.060;15.064;2023-02-02T04:08:52;0.33;;;0.33;;
4794;SDS011;2411;47.060;15.064;2023-02-02T04:11:19;0.40;;;0.40;;
4794;SDS011;2411;47.060;15.064;2023-02-02T04:13:46;0.30;;;0.30;;
4794;SDS011;2411;47.060;15.064;2023-02-02T04:16:14;0.30;;;0.30;;
4794;SDS011;2411;47.060;15.064;2023-02-02T04:18:41;0.40;;;0.40;;
4794;SDS011;2411;47.060;15.064;2023-02-02T04:21:09;0.30;;;0.30;;
4794;SDS011;2411;47.060;15.064;2023-02-02T04:23:36;0.50;;;0.37;;
4794;SDS011;2411;47.060;15.064;2023-02-02T04:26:04;0.40;;;0.40;;
4794;SDS011;2411;47.060;15.064;2023-02-02T04:28:32;0.30;;;0.30;;
4794;SDS011;2411;47.060;15.064;2023-02-02T04:30:59;0.33;;;0.33;;
4794;SDS011;2411;47.060;15.064;2023-02-02T04:33:27;0.30;;;0.30;;
4794;SDS011;2411;47.060;15.064;2023-02-02T04:35:54;0.40;;;0.40;;
4794;SDS011;2411;47.060;15.064;2023-02-02T04:38:24;0.40;;;0.40;;
4794;SDS011;2411;47.060;15.064;2023-02-02T04:45:16;0.30;;;0.30;;
4794;SDS011;2411;47.060;15.064;2023-02-02T04:47:43;0.40;;;0.40;;
4794;SDS011;2411;47.060;15.064;2023-02-02T04:50:10;0.30;;;0.30;;
4794;SDS011;2411;47.060;15.064;2023-02-02T04:52:37;0.30;;;0.30;;
4794;SDS011;2411;47.060;15.064;2023-02-02T04:55:05;0.37;;;0.37;;
4794;SDS011;2411;47.060;15.064;2023-02-02T04:57:32;0.40;;;0.40;;
4794;SDS011;2411;47.060;15.064;2023-02-02T04:59:59;0.30;;;0.30;;
4794;SDS011;2411;47.060;15.064;2023-02-02T05:02:26;0.40;;;0.40;;
4794;SDS011;2411;47.060;15.064;2023-02-02T05:04:53;6.73;;;0.40;;
4794;SDS011;2411;47.060;15.064;2023-02-02T05:07:21;0.30;;;0.30;;
4794;SDS011;2411;47.060;15.064;2023-02-02T05:09:48;0.40;;;0.40;;
4794;SDS011;2411;47.060;15.064;2023-02-02T05:12:15;0.30;;;0.30;;
4794;SDS011;2411;47.060;15.064;2023-02-02T05:14:42;0.40;;;0.40;;
4794;SDS011;2411;47.060;15.064;2023-02-02T05:17:09;0.30;;;0.30;;
4794;SDS011;2411;47.060;15.064;2023-02-02T05:19:36;0.30;;;0.30;;
4794;SDS011;2411;47.060;15.064;2023-02-02T05:22:03;0.30;;;0.30;;
4794;SDS011;2411;47.060;15.064;2023-02-02T05:24:31;0.30;;;0.30;;
4794;SDS011;2411;47.060;15.064;2023-02-02T05:26:58;0.30;;;0.30;;
4794;SDS011;2411;47.060;15.064;2023-02-02T05:29:26;0.40;;;0.40;;
4794;SDS011;2411;47.060;15.064;2023-02-02T05:31:55;0.37;;;0.37;;
4794;SDS011;2411;47.060;15.064;2023-02-02T05:34:23;0.30;;;0.30;;
4794;SDS011;2411;47.060;15.064;2023-02-02T05:36:50;0.40;;;0.40;;
4794;SDS011;2411;47.060;15.064;2023-02-02T05:39:17;0.40;;;0.40;;
4794;SDS011;2411;47.060;15.064;2023-02-02T05:41:45;0.70;;;0.40;;
4794;SDS011;2411;47.060;15.064;2023-02-02T05:44:12;0.40;;;0.40;;
4794;SDS011;2411;47.060;15.064;2023-02-02T05:46:40;0.50;;;0.50;;
4794;SDS011;2411;47.060;15.064;2023-02-02T05:49:10;0.63;;;0.63;;
4794;SDS011;2411;47.060;15.064;2023-02-02T05:54:09;0.60;;;0.60;;
4794;SDS011;2411;47.060;15.064;2023-02-02T05:56:36;0.47;;;0.47;;
4794;SDS011;2411;47.060;15.064;2023-02-02T05:59:03;0.40;;;0.40;;
4794;SDS011;2411;47.060;15.064;2023-02-02T06:01:33;0.53;;;0.50;;
4794;SDS011;2411;47.060;15.064;2023-02-02T06:04:00;0.80;;;0.47;;
4794;SDS011;2411;47.060;15.064;2023-02-02T06:06:28;0.50;;;0.50;;
4794;SDS011;2411;47.060;15.064;2023-02-02T06:08:55;0.90;;;0.90;;
4794;SDS011;2411;47.060;15.064;2023-02-02T06:11:22;4.23;;;1.07;;
4794;SDS011;2411;47.060;15.064;2023-02-02T06:13:49;0.60;;;0.60;;
4794;SDS011;2411;47.060;15.064;2023-02-02T06:16:16;1.53;;;0.70;;
4794;SDS011;2411;47.060;15.064;2023-02-02T06:18:43;1.30;;;0.70;;
4794;SDS011;2411;47.060;15.064;2023-02-02T06:21:10;0.70;;;0.70;;
4794;SDS011;2411;47.060;15.064;2023-02-02T06:23:38;0.40;;;0.40;;
4794;SDS011;2411;47.060;15.064;2023-02-02T06:26:11;3.17;;;0.80;;
4794;SDS011;2411;47.060;15.064;2023-02-02T06:28:39;4.20;;;0.90;;
4794;SDS011;2411;47.060;15.064;2023-02-02T06:31:07;3.63;;;0.70;;
4794;SDS011;2411;47.060;15.064;2023-02-02T06:33:36;3.70;;;1.03;;
4794;SDS011;2411;47.060;15.064;2023-02-02T06:36:04;4.33;;;0.77;;
4794;SDS011;2411;47.060;15.064;2023-02-02T06:38:32;1.27;;;0.60;;
4794;SDS011;2411;47.060;15.064;2023-02-02T06:41:00;0.40;;;0.40;;
4794;SDS011;2411;47.060;15.064;2023-02-02T06:43:28;0.50;;;0.50;;
4794;SDS011;2411;47.060;15.064;2023-02-02T06:45:56;0.40;;;0.40;;
4794;SDS011;2411;47.060;15.064;2023-02-02T06:48:24;0.40;;;0.40;;
4794;SDS011;2411;47.060;15.064;2023-02-02T06:50:52;0.40;;;0.40;;
4794;SDS011;2411;47.060;15.064;2023-02-02T06:53:22;0.60;;;0.40;;
4794;SDS011;2411;47.060;15.064;2023-02-02T06:55:56;2.00;;;1.10;;
4794;SDS011;2411;47.060;15.064;2023-02-02T06:58:24;0.60;;;0.60;;
4794;SDS011;2411;47.060;15.064;2023-02-02T07:00:52;2.30;;;1.30;;
4794;SDS011;2411;47.060;15.064;2023-02-02T07:03:20;1.53;;;0.73;;
4794;SDS011;2411;47.060;15.064;2023-02-02T07:05:48;1.20;;;0.67;;
4794;SDS011;2411;47.060;15.064;2023-02-02T07:08:15;0.50;;;0.50;;
4794;SDS011;2411;47.060;15.064;2023-02-02T07:10:42;0.70;;;0.60;;
4794;SDS011;2411;47.060;15.064;2023-02-02T07:13:30;1.60;;;1.50;;
4794;SDS011;2411;47.060;15.064;2023-02-02T07:15:57;0.93;;;0.93;;
4794;SDS011;2411;47.060;15.064;2023-02-02T07:18:24;0.90;;;0.90;;
4794;SDS011;2411;47.060;15.064;2023-02-02T07:20:52;0.70;;;0.70;;
4794;SDS011;2411;47.060;15.064;2023-02-02T07:23:19;3.00;;;0.70;;
4794;SDS011;2411;47.060;15.064;2023-02-02T07:25:46;2.40;;;0.70;;
4794;SDS011;2411;47.060;15.064;2023-02-02T07:28:13;4.63;;;0.50;;
4794;SDS011;2411;47.060;15.064;2023-02-02T07:30:40;0.50;;;0.50;;
4794;SDS011;2411;47.060;15.064;2023-02-02T07:33:08;1.70;;;0.60;;
4794;SDS011;2411;47.060;15.064;2023-02-02T07:35:35;1.50;;;0.53;;
4794;SDS011;2411;47.060;15.064;2023-02-02T07:38:02;1.67;;;0.57;;
4794;SDS011;2411;47.060;15.064;2023-02-02T07:40:29;0.60;;;0.60;;
4794;SDS011;2411;47.060;15.064;2023-02-02T07:42:56;4.20;;;0.80;;
4794;SDS011;2411;47.060;15.064;2023-02-02T07:45:26;0.70;;;0.70;;
4794;SDS011;2411;47.060;15.064;2023-02-02T07:47:57;0.53;;;0.53;;
4794;SDS011;2411;47.060;15.064;2023-02-02T07:50:25;0.50;;;0.50;;
4794;SDS011;2411;47.060;15.064;2023-02-02T07:52:54;0.50;;;0.50;;
4794;SDS011;2411;47.060;15.064;2023-02-02T07:55:21;7.80;;;0.73;;
4794;SDS011;2411;47.060;15.064;2023-02-02T07:57:50;1.47;;;1.33;;
4794;SDS011;2411;47.060;15.064;2023-02-02T08:00:18;1.10;;;1.00;;
4794;SDS011;2411;47.060;15.064;2023-02-02T08:02:47;1.10;;;1.10;;
4794;SDS011;2411;47.060;15.064;2023-02-02T08:05:15;0.60;;;0.60;;
4794;SDS011;2411;47.060;15.064;2023-02-02T08:07:42;0.60;;;0.60;;
4794;SDS011;2411;47.060;15.064;2023-02-02T08:10:10;2.00;;;0.60;;
4794;SDS011;2411;47.060;15.064;2023-02-02T08:12:37;0.67;;;0.67;;
4794;SDS011;2411;47.060;15.064;2023-02-02T08:15:05;2.53;;;0.80;;
4794;SDS011;2411;47.060;15.064;2023-02-02T08:17:33;0.73;;;0.73;;
4794;SDS011;2411;47.060;15.064;2023-02-02T08:20:01;0.60;;;0.60;;
4794;SDS011;2411;47.060;15.064;2023-02-02T08:22:28;0.60;;;0.60;;
4794;SDS011;2411;47.060;15.064;2023-02-02T08:24:56;0.83;;;0.60;;
4794;SDS011;2411;47.060;15.064;2023-02-02T08:27:23;0.57;;;0.57;;
4794;SDS011;2411;47.060;15.064;2023-02-02T08:29:50;0.63;;;0.60;;
4794;SDS011;2411;47.060;15.064;2023-02-02T08:32:17;0.90;;;0.90;;
4794;SDS011;2411;47.060;15.064;2023-02-02T08:34:46;0.60;;;0.60;;
4794;SDS011;2411;47.060;15.064;2023-02-02T08:37:14;0.73;;;0.73;;
4794;SDS011;2411;47.060;15.064;2023-02-02T08:39:41;0.80;;;0.80;;
4794;SDS011;2411;47.060;15.064;2023-02-02T08:42:08;0.60;;;0.60;;
4794;SDS011;2411;47.060;15.064;2023-02-02T08:44:35;0.60;;;0.60;;
4794;SDS011;2411;47.060;15.064;2023-02-02T08:47:23;0.50;;;0.50;;
4794;SDS011;2411;47.060;15.064;2023-02-02T08:49:50;0.60;;;0.60;;
4794;SDS011;2411;47.060;15.064;2023-02-02T08:52:17;0.50;;;0.50;;
4794;SDS011;2411;47.060;15.064;2023-02-02T08:54:44;0.50;;;0.50;;
4794;SDS011;2411;47.060;15.064;2023-02-02T08:57:11;0.63;;;0.63;;
4794;SDS011;2411;47.060;15.064;2023-02-02T08:59:39;3.13;;;0.90;;
4794;SDS011;2411;47.060;15.064;2023-02-02T09:02:07;1.20;;;1.10;;
4794;SDS011;2411;47.060;15.064;2023-02-02T09:04:36;1.30;;;1.20;;
4794;SDS011;2411;47.060;15.064;2023-02-02T09:07:03;1.40;;;1.30;;
4794;SDS011;2411;47.060;15.064;2023-02-02T09:09:31;2.10;;;1.30;;
4794;SDS011;2411;47.060;15.064;2023-02-02T09:11:58;0.70;;;0.70;;
4794;SDS011;2411;47.060;15.064;2023-02-02T09:14:26;1.20;;;1.10;;
4794;SDS011;2411;47.060;15.064;2023-02-02T09:16:53;1.30;;;1.30;;
4794;SDS011;2411;47.060;15.064;2023-02-02T09:19:20;2.07;;;1.97;;
4794;SDS011;2411;47.060;15.064;2023-02-02T09:21:48;1.70;;;1.60;;
4794;SDS011;2411;47.060;15.064;2023-02-02T09:24:15;5.47;;;1.63;;
4794;SDS011;2411;47.060;15.064;2023-02-02T09:26:43;2.00;;;1.60;;
4794;SDS011;2411;47.060;15.064;2023-02-02T09:29:11;6.80;;;1.50;;
4794;SDS011;2411;47.060;15.064;2023-02-02T09:31:40;1.57;;;1.33;;
4794;SDS011;2411;47.060;15.064;2023-02-02T09:34:09;2.17;;;2.07;;
4794;SDS011;2411;47.060;15.064;2023-02-02T09:36:38;2.67;;;2.47;;
4794;SDS011;2411;47.060;15.064;2023-02-02T09:39:06;4.20;;;3.53;;
4794;SDS011;2411;47.060;15.064;2023-02-02T09:49:36;3.33;;;2.33;;
4794;SDS011;2411;47.060;15.064;2023-02-02T09:55:04;3.63;;;2.00;;
4794;SDS011;2411;47.060;15.064;2023-02-02T09:57:50;4.17;;;2.30;;
4794;SDS011;2411;47.060;15.064;2023-02-02T10:00:31;2.60;;;2.40;;
4794;SDS011;2411;47.060;15.064;2023-02-02T10:03:03;2.47;;;2.17;;
4794;SDS011;2411;47.060;15.064;2023-02-02T10:05:42;3.23;;;2.93;;
4794;SDS011;2411;47.060;15.064;2023-02-02T10:08:16;3.13;;;2.43;;
4794;SDS011;2411;47.060;15.064;2023-02-02T10:11:01;2.53;;;2.43;;
4794;SDS011;2411;47.060;15.064;2023-02-02T10:13:47;3.17;;;2.67;;
4794;SDS011;2411;47.060;15.064;2023-02-02T10:16:16;2.60;;;2.50;;
4794;SDS011;2411;47.060;15.064;2023-02-02T10:24:11;3.33;;;3.13;;
4794;SDS011;2411;47.060;15.064;2023-02-02T10:26:48;2.30;;;2.20;;
4794;SDS011;2411;47.060;15.064;2023-02-02T10:31:52;2.93;;;2.80;;
4794;SDS011;2411;47.060;15.064;2023-02-02T10:38:05;3.00;;;2.80;;
4794;SDS011;2411;47.060;15.064;2023-02-02T10:44:09;2.00;;;1.90;;
4794;SDS011;2411;47.060;15.064;2023-02-02T10:46:45;2.20;;;2.03;;
4794;SDS011;2411;47.060;15.064;2023-02-02T10:52:03;3.10;;;2.90;;
4794;SDS011;2411;47.060;15.064;2023-02-02T10:54:44;2.53;;;2.43;;
4794;SDS011;2411;47.060;15.064;2023-02-02T11:00:20;2.43;;;2.33;;
4794;SDS011;2411;47.060;15.064;2023-02-02T11:02:55;2.57;;;2.47;;
4794;SDS011;2411;47.060;15.064;2023-02-02T11:05:25;2.50;;;2.40;;
4794;SDS011;2411;47.060;15.064;2023-02-02T11:08:13;2.43;;;2.33;;
4794;SDS011;2411;47.060;15.064;2023-02-02T11:10:43;2.57;;;2.37;;
4794;SDS011;2411;47.060;15.064;2023-02-02T11:13:20;2.27;;;2.17;;
4794;SDS011;2411;47.060;15.064;2023-02-02T11:16:13;2.30;;;2.20;;
4794;SDS011;2411;47.060;15.064;2023-02-02T11:18:44;3.83;;;3.27;;
4794;SDS011;2411;47.060;15.064;2023-02-02T11:21:33;3.10;;;2.90;;
4794;SDS011;2411;47.060;15.064;2023-02-02T11:24:00;2.90;;;2.70;;
4794;SDS011;2411;47.060;15.064;2023-02-02T11:26:44;2.40;;;2.30;;
4794;SDS011;2411;47.060;15.064;2023-02-02T11:29:19;3.00;;;2.80;;
4794;SDS011;2411;47.060;15.064;2023-02-02T11:31:53;2.50;;;2.20;;
4794;SDS011;2411;47.060;15.064;2023-02-02T11:34:22;2.80;;;2.60;;
4794;SDS011;2411;47.060;15.064;2023-02-02T11:39:23;1.87;;;1.77;;
4794;SDS011;2411;47.060;15.064;2023-02-02T11:41:51;2.00;;;1.90;;
4794;SDS011;2411;47.060;15.064;2023-02-02T11:44:29;1.73;;;1.73;;
4794;SDS011;2411;47.060;15.064;2023-02-02T11:47:02;2.30;;;2.10;;
4794;SDS011;2411;47.060;15.064;2023-02-02T11:49:36;1.60;;;1.53;;
4794;SDS011;2411;47.060;15.064;2023-02-02T11:52:16;2.23;;;1.67;;
4794;SDS011;2411;47.060;15.064;2023-02-02T11:54:46;2.00;;;1.90;;
4794;SDS011;2411;47.060;15.064;2023-02-02T11:57:20;2.10;;;2.00;;
4794;SDS011;2411;47.060;15.064;2023-02-02T11:59:49;2.27;;;2.17;;
4794;SDS011;2411;47.060;15.064;2023-02-02T12:02:31;1.97;;;1.97;;
4794;SDS011;2411;47.060;15.064;2023-02-02T12:07:45;2.03;;;1.93;;
4794;SDS011;2411;47.060;15.064;2023-02-02T12:17:54;2.63;;;2.50;;
4794;SDS011;2411;47.060;15.064;2023-02-02T12:26:36;2.33;;;2.23;;
4794;SDS011;2411;47.060;15.064;2023-02-02T12:32:12;2.80;;;2.60;;
4794;SDS011;2411;47.060;15.064;2023-02-02T12:40:06;2.67;;;2.47;;
4794;SDS011;2411;47.060;15.064;2023-02-02T12:42:48;2.90;;;2.70;;
4794;SDS011;2411;47.060;15.064;2023-02-02T12:45:54;2.47;;;2.13;;
4794;SDS011;2411;47.060;15.064;2023-02-02T12:48:41;2.93;;;2.20;;
4794;SDS011;2411;47.060;15.064;2023-02-02T12:54:54;2.20;;;1.97;;
4794;SDS011;2411;47.060;15.064;2023-02-02T13:02:45;4.83;;;3.27;;
4794;SDS011;2411;47.060;15.064;2023-02-02T13:05:38;4.17;;;3.87;;
4794;SDS011;2411;47.060;15.064;2023-02-02T13:08:16;3.03;;;2.93;;
4794;SDS011;2411;47.060;15.064;2023-02-02T13:10:51;3.10;;;2.90;;
4794;SDS011;2411;47.060;15.064;2023-02-02T13:13:25;3.10;;;2.90;;
4794;SDS011;2411;47.060;15.064;2023-02-02T13:16:04;2.07;;;1.97;;
4794;SDS011;2411;47.060;15.064;2023-02-02T13:18:35;2.27;;;2.17;;
4794;SDS011;2411;47.060;15.064;2023-02-02T13:21:12;2.70;;;2.20;;
4794;SDS011;2411;47.060;15.064;2023-02-02T13:23:52;4.90;;;3.00;;
4794;SDS011;2411;47.060;15.064;2023-02-02T13:31:47;2.87;;;2.67;;
4794;SDS011;2411;47.060;15.064;2023-02-02T13:34:42;2.50;;;2.30;;
4794;SDS011;2411;47.060;15.064;2023-02-02T13:39:46;2.03;;;1.93;;
4794;SDS011;2411;47.060;15.064;2023-02-02T13:42:25;1.90;;;1.80;;
4794;SDS011;2411;47.060;15.064;2023-02-02T13:45:05;1.57;;;1.50;;
4794;SDS011;2411;47.060;15.064;2023-02-02T13:47:53;2.00;;;1.90;;
4794;SDS011;2411;47.060;15.064;2023-02-02T13:50:25;1.57;;;1.57;;
4794;SDS011;2411;47.060;15.064;2023-02-02T13:58:48;1.50;;;1.40;;
4794;SDS011;2411;47.060;15.064;2023-02-02T14:01:20;1.30;;;1.30;;
4794;SDS011;2411;47.060;15.064;2023-02-02T14:03:52;1.53;;;1.53;;
4794;SDS011;2411;47.060;15.064;2023-02-02T14:06:22;1.83;;;1.73;;
4794;SDS011;2411;47.060;15.064;2023-02-02T14:13:58;2.20;;;2.10;;
4794;SDS011;2411;47.060;15.064;2023-02-02T14:16:58;2.00;;;1.90;;
4794;SDS011;2411;47.060;15.064;2023-02-02T14:37:40;1.80;;;1.70;;
4794;SDS011;2411;47.060;15.064;2023-02-02T14:49:24;1.80;;;1.70;;
4794;SDS011;2411;47.060;15.064;2023-02-02T14:51:47;2.90;;;2.70;;
4794;SDS011;2411;47.060;15.064;2023-02-02T14:54:25;3.03;;;2.83;;
4794;SDS011;2411;47.060;15.064;2023-02-02T14:56:57;2.13;;;2.03;;
4794;SDS011;2411;47.060;15.064;2023-02-02T14:59:29;2.40;;;2.30;;
4794;SDS011;2411;47.060;15.064;2023-02-02T15:02:17;2.10;;;2.00;;
4794;SDS011;2411;47.060;15.064;2023-02-02T15:04:49;2.50;;;2.40;;
4794;SDS011;2411;47.060;15.064;2023-02-02T15:09:49;3.20;;;3.00;;
4794;SDS011;2411;47.060;15.064;2023-02-02T15:12:23;2.70;;;2.60;;
4794;SDS011;2411;47.060;15.064;2023-02-02T15:15:04;3.67;;;3.03;;
4794;SDS011;2411;47.060;15.064;2023-02-02T15:17:49;3.47;;;3.20;;
4794;SDS011;2411;47.060;15.064;2023-02-02T15:22:59;3.47;;;3.20;;
4794;SDS011;2411;47.060;15.064;2023-02-02T15:31:04;3.30;;;3.10;;
4794;SDS011;2411;47.060;15.064;2023-02-02T15:33:51;3.50;;;3.30;;
4794;SDS011;2411;47.060;15.064;2023-02-02T15:36:23;3.53;;;3.23;;
4794;SDS011;2411;47.060;15.064;2023-02-02T15:38:53;3.40;;;3.20;;
4794;SDS011;2411;47.060;15.064;2023-02-02T15:41:24;3.60;;;3.40;;
4794;SDS011;2411;47.060;15.064;2023-02-02T15:43:59;3.30;;;3.00;;
4794;SDS011;2411;47.060;15.064;2023-02-02T15:46:30;3.00;;;2.80;;
4794;SDS011;2411;47.060;15.064;2023-02-02T15:51:59;2.20;;;2.10;;
4794;SDS011;2411;47.060;15.064;2023-02-02T15:54:35;2.80;;;2.60;;
4794;SDS011;2411;47.060;15.064;2023-02-02T15:59:53;2.50;;;2.30;;
4794;SDS011;2411;47.060;15.064;2023-02-02T16:08:18;2.43;;;2.30;;
4794;SDS011;2411;47.060;15.064;2023-02-02T16:10:50;2.20;;;2.10;;
4794;SDS011;2411;47.060;15.064;2023-02-02T16:13:35;2.17;;;2.07;;
4794;SDS011;2411;47.060;15.064;2023-02-02T16:16:04;2.40;;;2.20;;
4794;SDS011;2411;47.060;15.064;2023-02-02T16:18:45;2.40;;;2.30;;
4794;SDS011;2411;47.060;15.064;2023-02-02T16:21:18;2.30;;;2.20;;
4794;SDS011;2411;47.060;15.064;2023-02-02T16:23:50;3.27;;;2.37;;
4794;SDS011;2411;47.060;15.064;2023-02-02T16:26:18;3.27;;;2.97;;
4794;SDS011;2411;47.060;15.064;2023-02-02T16:28:48;2.40;;;2.30;;
4794;SDS011;2411;47.060;15.064;2023-02-02T16:31:15;2.90;;;2.70;;
4794;SDS011;2411;47.060;15.064;2023-02-02T16:33:43;3.90;;;3.00;;
4794;SDS011;2411;47.060;15.064;2023-02-02T16:36:18;2.83;;;2.63;;
4794;SDS011;2411;47.060;15.064;2023-02-02T16:38:52;2.43;;;1.97;;
4794;SDS011;2411;47.060;15.064;2023-02-02T16:43:53;2.23;;;2.13;;
4794;SDS011;2411;47.060;15.064;2023-02-02T16:49:20;2.57;;;2.47;;
4794;SDS011;2411;47.060;15.064;2023-02-02T16:54:50;3.10;;;2.90;;
4794;SDS011;2411;47.060;15.064;2023-02-02T16:57:21;2.63;;;2.50;;
4794;SDS011;2411;47.060;15.064;2023-02-02T16:59:54;3.03;;;2.73;;
4794;SDS011;2411;47.060;15.064;2023-02-02T17:02:24;2.73;;;2.63;;
4794;SDS011;2411;47.060;15.064;2023-02-02T17:05:02;3.17;;;2.97;;
4794;SDS011;2411;47.060;15.064;2023-02-02T17:07:33;4.43;;;2.90;;
4794;SDS011;2411;47.060;15.064;2023-02-02T17:10:17;3.10;;;2.90;;
4794;SDS011;2411;47.060;15.064;2023-02-02T17:12:51;2.70;;;2.60;;
4794;SDS011;2411;47.060;15.064;2023-02-02T17:17:51;2.70;;;2.60;;
4794;SDS011;2411;47.060;15.064;2023-02-02T17:20:19;2.30;;;2.20;;
4794;SDS011;2411;47.060;15.064;2023-02-02T17:22:48;2.87;;;2.67;;
4794;SDS011;2411;47.060;15.064;2023-02-02T17:25:25;2.33;;;2.23;;
4794;SDS011;2411;47.060;15.064;2023-02-02T17:27:53;3.10;;;2.90;;
4794;SDS011;2411;47.060;15.064;2023-02-02T17:30:22;3.03;;;2.83;;
4794;SDS011;2411;47.060;15.064;2023-02-02T17:32:50;2.63;;;2.50;;
4794;SDS011;2411;47.060;15.064;2023-02-02T17:35:19;3.07;;;2.87;;
4794;SDS011;2411;47.060;15.064;2023-02-02T17:37:49;2.70;;;2.60;;
4794;SDS011;2411;47.060;15.064;2023-02-02T17:40:20;3.77;;;3.47;;
4794;SDS011;2411;47.060;15.064;2023-02-02T17:42:51;18.10;;;10.10;;
4794;SDS011;2411;47.060;15.064;2023-02-02T17:45:37;20.80;;;12.13;;
4794;SDS011;2411;47.060;15.064;2023-02-02T17:48:05;22.93;;;11.57;;
4794;SDS011;2411;47.060;15.064;2023-02-02T17:50:35;8.90;;;6.73;;
4794;SDS011;2411;47.060;15.064;2023-02-02T17:53:03;7.77;;;6.20;;
4794;SDS011;2411;47.060;15.064;2023-02-02T17:55:41;14.40;;;11.00;;
4794;SDS011;2411;47.060;15.064;2023-02-02T17:58:09;11.37;;;8.80;;
4794;SDS011;2411;47.060;15.064;2023-02-02T18:00:40;7.70;;;6.10;;
4794;SDS011;2411;47.060;15.064;2023-02-02T18:05:36;11.30;;;8.77;;
4794;SDS011;2411;47.060;15.064;2023-02-02T18:08:03;9.00;;;8.10;;
4794;SDS011;2411;47.060;15.064;2023-02-02T18:10:31;7.20;;;6.30;;
4794;SDS011;2411;47.060;15.064;2023-02-02T18:12:59;8.93;;;7.50;;
4794;SDS011;2411;47.060;15.064;2023-02-02T18:15:26;8.63;;;7.30;;
4794;SDS011;2411;47.060;15.064;2023-02-02T18:17:54;7.67;;;6.97;;
4794;SDS011;2411;47.060;15.064;2023-02-02T18:20:22;6.97;;;6.30;;
4794;SDS011;2411;47.060;15.064;2023-02-02T18:22:50;7.30;;;6.60;;
4794;SDS011;2411;47.060;15.064;2023-02-02T18:25:17;5.93;;;5.40;;
4794;SDS011;2411;47.060;15.064;2023-02-02T18:27:45;5.77;;;4.73;;
4794;SDS011;2411;47.060;15.064;2023-02-02T18:30:14;4.33;;;4.03;;